sensor_id;sensor_type;location;lat;lon;timestamp;pressure;altitude;pressure_sealevel;temperature
8533;BMP280;4304;53.876;10.662;2022-09-30T00:01:00;114697.09;;;-139.81
8533;BMP280;4304;53.876;10.662;2022-09-30T00:03:25;114697.09;;;-139.81
8533;BMP280;4304;53.876;10.662;2022-09-30T00:06:01;114697.09;;;-139.81
8533;BMP280;4304;53.876;10.662;2022-09-30T00:08:26;114697.09;;;-139.81
8533;BMP280;4304;53.876;10.662;2022-09-30T00:11:03;114697.09;;;-139.81
8533;BMP280;4304;53.876;10.662;2022-09-30T00:13:33;114697.09;;;-139.81
8533;BMP280;4304;53.876;10.662;2022-09-30T00:15:59;114437.56;;;-139.81
8533;BMP280;4304;53.876;10.662;2022-09-30T00:18:25;114437.56;;;-139.81
8533;BMP280;4304;53.876;10.662;2022-09-30T00:20:51;114437.56;;;-139.81
8533;BMP280;4304;53.876;10.662;2022-09-30T00:23:16;114437.56;;;-139.81
8533;BMP280;4304;53.876;10.662;2022-09-30T00:25:41;114437.56;;;-139.81
8533;BMP280;4304;53.876;10.662;2022-09-30T00:28:06;114437.56;;;-139.81
8533;BMP280;4304;53.876;10.662;2022-09-30T00:30:31;114437.56;;;-139.81
8533;BMP280;4304;53.876;10.662;2022-09-30T00:32:56;114437.56;;;-139.81
8533;BMP280;4304;53.876;10.662;2022-09-30T00:35:22;114437.56;;;-139.81
8533;BMP280;4304;53.876;10.662;2022-09-30T00:37:47;114437.56;;;-139.81
8533;BMP280;4304;53.876;10.662;2022-09-30T00:40:12;114437.56;;;-139.81
8533;BMP280;4304;53.876;10.662;2022-09-30T00:42:40;114437.56;;;-139.81
8533;BMP280;4304;53.876;10.662;2022-09-30T00:45:09;114437.56;;;-139.81
8533;BMP280;4304;53.876;10.662;2022-09-30T00:52:58;114697.09;;;-139.81
8533;BMP280;4304;53.876;10.662;2022-09-30T00:58:29;114697.09;;;-139.81
8533;BMP280;4304;53.876;10.662;2022-09-30T01:00:56;114437.56;;;-139.81
8533;BMP280;4304;53.876;10.662;2022-09-30T01:03:22;114437.56;;;-139.81
8533;BMP280;4304;53.876;10.662;2022-09-30T01:05:49;114437.56;;;-139.81
8533;BMP280;4304;53.876;10.662;2022-09-30T01:08:16;114437.56;;;-139.81
8533;BMP280;4304;53.876;10.662;2022-09-30T01:10:43;114437.56;;;-139.81
8533;BMP280;4304;53.876;10.662;2022-09-30T01:13:08;114437.56;;;-139.81
8533;BMP280;4304;53.876;10.662;2022-09-30T01:19:04;114437.56;;;-139.81
8533;BMP280;4304;53.876;10.662;2022-09-30T01:34:28;114437.56;;;-139.81
8533;BMP280;4304;53.876;10.662;2022-09-30T01:44:36;114697.09;;;-139.81
8533;BMP280;4304;53.876;10.662;2022-09-30T01:47:25;114697.09;;;-139.81
8533;BMP280;4304;53.876;10.662;2022-09-30T01:50:08;114697.09;;;-139.81
8533;BMP280;4304;53.876;10.662;2022-09-30T01:52:45;114697.09;;;-139.81
8533;BMP280;4304;53.876;10.662;2022-09-30T01:55:21;114697.09;;;-139.81
8533;BMP280;4304;53.876;10.662;2022-09-30T02:00:18;114437.56;;;-139.81
8533;BMP280;4304;53.876;10.662;2022-09-30T02:03:11;114697.09;;;-139.81
8533;BMP280;4304;53.876;10.662;2022-09-30T02:08:37;114697.09;;;-139.81
8533;BMP280;4304;53.876;10.662;2022-09-30T02:11:08;114437.56;;;-139.81
8533;BMP280;4304;53.876;10.662;2022-09-30T02:13:46;114437.56;;;-139.81
8533;BMP280;4304;53.876;10.662;2022-09-30T02:16:15;114697.09;;;-139.81
8533;BMP280;4304;53.876;10.662;2022-09-30T02:18:44;114437.56;;;-139.81
8533;BMP280;4304;53.876;10.662;2022-09-30T02:21:14;114437.56;;;-139.81
8533;BMP280;4304;53.876;10.662;2022-09-30T02:23:43;114437.56;;;-139.81
8533;BMP280;4304;53.876;10.662;2022-09-30T02:26:17;114437.56;;;-139.81
8533;BMP280;4304;53.876;10.662;2022-09-30T02:28:48;114437.56;;;-139.81
8533;BMP280;4304;53.876;10.662;2022-09-30T02:31:17;114437.56;;;-139.81
8533;BMP280;4304;53.876;10.662;2022-09-30T02:33:47;114437.56;;;-139.81
8533;BMP280;4304;53.876;10.662;2022-09-30T02:36:21;114437.56;;;-139.81
8533;BMP280;4304;53.876;10.662;2022-09-30T02:38:55;114437.56;;;-139.81
8533;BMP280;4304;53.876;10.662;2022-09-30T02:41:24;114437.56;;;-139.81
8533;BMP280;4304;53.876;10.662;2022-09-30T02:43:50;114437.56;;;-139.81
8533;BMP280;4304;53.876;10.662;2022-09-30T02:52:23;114697.09;;;-139.81
8533;BMP280;4304;53.876;10.662;2022-09-30T02:55:17;114697.09;;;-139.81
8533;BMP280;4304;53.876;10.662;2022-09-30T03:00:26;114437.56;;;-139.81
8533;BMP280;4304;53.876;10.662;2022-09-30T03:03:04;114697.09;;;-139.81
8533;BMP280;4304;53.876;10.662;2022-09-30T03:05:31;114437.56;;;-139.81
8533;BMP280;4304;53.876;10.662;2022-09-30T03:07:57;114437.56;;;-139.81
8533;BMP280;4304;53.876;10.662;2022-09-30T03:10:22;114437.56;;;-139.81
8533;BMP280;4304;53.876;10.662;2022-09-30T03:15:46;114697.09;;;-139.81
8533;BMP280;4304;53.876;10.662;2022-09-30T03:18:47;114437.56;;;-139.81
8533;BMP280;4304;53.876;10.662;2022-09-30T03:24:21;114697.09;;;-139.81
8533;BMP280;4304;53.876;10.662;2022-09-30T03:27:24;114437.56;;;-139.81
8533;BMP280;4304;53.876;10.662;2022-09-30T03:33:17;114437.56;;;-139.81
8533;BMP280;4304;53.876;10.662;2022-09-30T03:36:02;114437.56;;;-139.81
8533;BMP280;4304;53.876;10.662;2022-09-30T03:41:41;114437.56;;;-139.81
8533;BMP280;4304;53.876;10.662;2022-09-30T03:46:50;114437.56;;;-139.81
8533;BMP280;4304;53.876;10.662;2022-09-30T03:49:50;114178.06;;;-139.81
8533;BMP280;4304;53.876;10.662;2022-09-30T03:52:16;114178.06;;;-139.81
8533;BMP280;4304;53.876;10.662;2022-09-30T03:54:52;114178.06;;;-139.81
8533;BMP280;4304;53.876;10.662;2022-09-30T03:57:18;114178.06;;;-139.81
8533;BMP280;4304;53.876;10.662;2022-09-30T03:59:43;113918.59;;;-139.81
8533;BMP280;4304;53.876;10.662;2022-09-30T04:02:09;113918.59;;;-139.81
8533;BMP280;4304;53.876;10.662;2022-09-30T04:04:35;113918.59;;;-139.81
8533;BMP280;4304;53.876;10.662;2022-09-30T04:07:00;114178.06;;;-139.81
8533;BMP280;4304;53.876;10.662;2022-09-30T04:09:25;114178.06;;;-139.81
8533;BMP280;4304;53.876;10.662;2022-09-30T04:11:50;114178.06;;;-139.81
8533;BMP280;4304;53.876;10.662;2022-09-30T04:14:16;114178.06;;;-139.81
8533;BMP280;4304;53.876;10.662;2022-09-30T04:16:41;114178.06;;;-139.81
8533;BMP280;4304;53.876;10.662;2022-09-30T04:19:06;114178.06;;;-139.81
8533;BMP280;4304;53.876;10.662;2022-09-30T04:21:31;114178.06;;;-139.81
8533;BMP280;4304;53.876;10.662;2022-09-30T04:23:56;114178.06;;;-139.81
8533;BMP280;4304;53.876;10.662;2022-09-30T04:26:22;114178.06;;;-139.81
8533;BMP280;4304;53.876;10.662;2022-09-30T04:28:47;114178.06;;;-139.81
8533;BMP280;4304;53.876;10.662;2022-09-30T04:31:13;114178.06;;;-139.81
8533;BMP280;4304;53.876;10.662;2022-09-30T04:33:39;114178.06;;;-139.81
8533;BMP280;4304;53.876;10.662;2022-09-30T04:36:05;114178.06;;;-139.81
8533;BMP280;4304;53.876;10.662;2022-09-30T04:38:30;114178.06;;;-139.81
8533;BMP280;4304;53.876;10.662;2022-09-30T04:40:56;114178.06;;;-139.81
8533;BMP280;4304;53.876;10.662;2022-09-30T04:43:22;114178.06;;;-139.81
8533;BMP280;4304;53.876;10.662;2022-09-30T04:45:48;114178.06;;;-139.81
8533;BMP280;4304;53.876;10.662;2022-09-30T04:48:14;114178.06;;;-139.81
8533;BMP280;4304;53.876;10.662;2022-09-30T04:50:40;114178.06;;;-139.81
8533;BMP280;4304;53.876;10.662;2022-09-30T04:53:06;114178.06;;;-139.81
8533;BMP280;4304;53.876;10.662;2022-09-30T04:55:31;113918.59;;;-139.81
8533;BMP280;4304;53.876;10.662;2022-09-30T04:57:56;114178.06;;;-139.81
8533;BMP280;4304;53.876;10.662;2022-09-30T05:00:22;113918.59;;;-139.81
8533;BMP280;4304;53.876;10.662;2022-09-30T05:02:47;113918.59;;;-139.81
8533;BMP280;4304;53.876;10.662;2022-09-30T05:05:13;114178.06;;;-139.81
8533;BMP280;4304;53.876;10.662;2022-09-30T05:07:38;114178.06;;;-139.81
8533;BMP280;4304;53.876;10.662;2022-09-30T05:10:04;114178.06;;;-139.81
8533;BMP280;4304;53.876;10.662;2022-09-30T05:12:29;114178.06;;;-139.81
8533;BMP280;4304;53.876;10.662;2022-09-30T05:14:54;114178.06;;;-139.81
8533;BMP280;4304;53.876;10.662;2022-09-30T05:17:19;114178.06;;;-139.81
8533;BMP280;4304;53.876;10.662;2022-09-30T05:19:45;114178.06;;;-139.81
8533;BMP280;4304;53.876;10.662;2022-09-30T05:22:10;114178.06;;;-139.81
8533;BMP280;4304;53.876;10.662;2022-09-30T05:24:35;114178.06;;;-139.81
8533;BMP280;4304;53.876;10.662;2022-09-30T05:27:01;114178.06;;;-139.81
8533;BMP280;4304;53.876;10.662;2022-09-30T05:29:26;114178.06;;;-139.81
8533;BMP280;4304;53.876;10.662;2022-09-30T05:31:51;114178.06;;;-139.81
8533;BMP280;4304;53.876;10.662;2022-09-30T05:34:16;114178.06;;;-139.81
8533;BMP280;4304;53.876;10.662;2022-09-30T05:36:42;114178.06;;;-139.81
8533;BMP280;4304;53.876;10.662;2022-09-30T05:39:08;114437.56;;;-139.81
8533;BMP280;4304;53.876;10.662;2022-09-30T05:41:34;114178.06;;;-139.81
8533;BMP280;4304;53.876;10.662;2022-09-30T05:43:59;114178.06;;;-139.81
8533;BMP280;4304;53.876;10.662;2022-09-30T05:46:24;114178.06;;;-139.81
8533;BMP280;4304;53.876;10.662;2022-09-30T05:48:52;114178.06;;;-139.81
8533;BMP280;4304;53.876;10.662;2022-09-30T05:51:17;114178.06;;;-139.81
8533;BMP280;4304;53.876;10.662;2022-09-30T05:53:42;114178.06;;;-139.81
8533;BMP280;4304;53.876;10.662;2022-09-30T05:56:08;114178.06;;;-139.81
8533;BMP280;4304;53.876;10.662;2022-09-30T05:58:34;114178.06;;;-139.81
8533;BMP280;4304;53.876;10.662;2022-09-30T06:01:08;114437.56;;;-139.81
8533;BMP280;4304;53.876;10.662;2022-09-30T06:03:34;114437.56;;;-139.81
8533;BMP280;4304;53.876;10.662;2022-09-30T06:06:00;114437.56;;;-139.81
8533;BMP280;4304;53.876;10.662;2022-09-30T06:08:25;114437.56;;;-139.81
8533;BMP280;4304;53.876;10.662;2022-09-30T06:10:50;114437.56;;;-139.81
8533;BMP280;4304;53.876;10.662;2022-09-30T06:13:15;114437.56;;;-139.81
8533;BMP280;4304;53.876;10.662;2022-09-30T06:15:41;114437.56;;;-139.81
8533;BMP280;4304;53.876;10.662;2022-09-30T06:18:06;114437.56;;;-139.81
8533;BMP280;4304;53.876;10.662;2022-09-30T06:20:32;114437.56;;;-139.81
8533;BMP280;4304;53.876;10.662;2022-09-30T06:22:59;114437.56;;;-139.81
8533;BMP280;4304;53.876;10.662;2022-09-30T06:25:24;114437.56;;;-139.81
8533;BMP280;4304;53.876;10.662;2022-09-30T06:27:50;114437.56;;;-139.81
8533;BMP280;4304;53.876;10.662;2022-09-30T06:30:16;114437.56;;;-139.81
8533;BMP280;4304;53.876;10.662;2022-09-30T06:32:42;114697.09;;;-139.81
8533;BMP280;4304;53.876;10.662;2022-09-30T06:35:07;114697.09;;;-139.81
8533;BMP280;4304;53.876;10.662;2022-09-30T06:37:33;114697.09;;;-139.81
8533;BMP280;4304;53.876;10.662;2022-09-30T06:39:58;114697.09;;;-139.81
8533;BMP280;4304;53.876;10.662;2022-09-30T06:42:23;114697.09;;;-139.81
8533;BMP280;4304;53.876;10.662;2022-09-30T06:44:48;114697.09;;;-139.81
8533;BMP280;4304;53.876;10.662;2022-09-30T06:47:14;114956.66;;;-139.81
8533;BMP280;4304;53.876;10.662;2022-09-30T06:49:39;114956.66;;;-139.81
8533;BMP280;4304;53.876;10.662;2022-09-30T06:52:05;114956.66;;;-139.81
8533;BMP280;4304;53.876;10.662;2022-09-30T06:54:30;114956.66;;;-139.81
8533;BMP280;4304;53.876;10.662;2022-09-30T06:56:55;115216.22;;;-139.81
8533;BMP280;4304;53.876;10.662;2022-09-30T06:59:23;115216.22;;;-139.81
8533;BMP280;4304;53.876;10.662;2022-09-30T07:01:48;115216.22;;;-139.81
8533;BMP280;4304;53.876;10.662;2022-09-30T07:04:14;114956.66;;;-139.81
8533;BMP280;4304;53.876;10.662;2022-09-30T07:06:39;115216.22;;;-139.81
8533;BMP280;4304;53.876;10.662;2022-09-30T07:09:05;115216.22;;;-139.81
8533;BMP280;4304;53.876;10.662;2022-09-30T07:11:30;115475.81;;;-139.81
8533;BMP280;4304;53.876;10.662;2022-09-30T07:13:57;115735.44;;;-139.81
8533;BMP280;4304;53.876;10.662;2022-09-30T07:16:22;115735.44;;;-139.81
8533;BMP280;4304;53.876;10.662;2022-09-30T07:18:47;115995.09;;;-139.81
8533;BMP280;4304;53.876;10.662;2022-09-30T07:21:13;115995.09;;;-139.81
8533;BMP280;4304;53.876;10.662;2022-09-30T07:23:39;115995.09;;;-139.81
8533;BMP280;4304;53.876;10.662;2022-09-30T07:26:04;115995.09;;;-139.81
8533;BMP280;4304;53.876;10.662;2022-09-30T07:28:32;116254.75;;;-139.81
8533;BMP280;4304;53.876;10.662;2022-09-30T07:30:59;116254.75;;;-139.81
8533;BMP280;4304;53.876;10.662;2022-09-30T07:33:25;116254.75;;;-139.81
8533;BMP280;4304;53.876;10.662;2022-09-30T07:35:54;116254.75;;;-139.81
8533;BMP280;4304;53.876;10.662;2022-09-30T07:38:21;116254.75;;;-139.81
8533;BMP280;4304;53.876;10.662;2022-09-30T07:41:08;116254.75;;;-139.81
8533;BMP280;4304;53.876;10.662;2022-09-30T07:43:34;116514.44;;;-139.81
8533;BMP280;4304;53.876;10.662;2022-09-30T07:46:12;116514.44;;;-139.81
8533;BMP280;4304;53.876;10.662;2022-09-30T07:48:40;116514.44;;;-139.81
8533;BMP280;4304;53.876;10.662;2022-09-30T07:51:05;116514.44;;;-139.81
8533;BMP280;4304;53.876;10.662;2022-09-30T07:53:31;116514.44;;;-139.81
8533;BMP280;4304;53.876;10.662;2022-09-30T07:55:56;116514.44;;;-139.81
8533;BMP280;4304;53.876;10.662;2022-09-30T07:58:21;116514.44;;;-139.81
8533;BMP280;4304;53.876;10.662;2022-09-30T08:00:47;116514.44;;;-139.81
8533;BMP280;4304;53.876;10.662;2022-09-30T08:03:12;116514.44;;;-139.81
8533;BMP280;4304;53.876;10.662;2022-09-30T08:05:39;116514.44;;;-139.81
8533;BMP280;4304;53.876;10.662;2022-09-30T08:08:04;116514.44;;;-139.81
8533;BMP280;4304;53.876;10.662;2022-09-30T08:10:33;116514.44;;;-139.81
8533;BMP280;4304;53.876;10.662;2022-09-30T08:12:58;116514.44;;;-139.81
8533;BMP280;4304;53.876;10.662;2022-09-30T08:15:23;116514.44;;;-139.81
8533;BMP280;4304;53.876;10.662;2022-09-30T08:17:48;116774.16;;;-139.81
8533;BMP280;4304;53.876;10.662;2022-09-30T08:20:13;116514.44;;;-139.81
8533;BMP280;4304;53.876;10.662;2022-09-30T08:22:39;116514.44;;;-139.81
8533;BMP280;4304;53.876;10.662;2022-09-30T08:25:04;116514.44;;;-139.81
8533;BMP280;4304;53.876;10.662;2022-09-30T08:27:29;116514.44;;;-139.81
8533;BMP280;4304;53.876;10.662;2022-09-30T08:29:55;116514.44;;;-139.81
8533;BMP280;4304;53.876;10.662;2022-09-30T08:32:20;116514.44;;;-139.81
8533;BMP280;4304;53.876;10.662;2022-09-30T08:34:45;116514.44;;;-139.81
8533;BMP280;4304;53.876;10.662;2022-09-30T08:37:10;116514.44;;;-139.81
8533;BMP280;4304;53.876;10.662;2022-09-30T08:39:38;116514.44;;;-139.81
8533;BMP280;4304;53.876;10.662;2022-09-30T08:42:21;116514.44;;;-139.81
8533;BMP280;4304;53.876;10.662;2022-09-30T08:44:49;116514.44;;;-139.81
8533;BMP280;4304;53.876;10.662;2022-09-30T08:47:49;116254.75;;;-139.81
8533;BMP280;4304;53.876;10.662;2022-09-30T08:50:23;116254.75;;;-139.81
8533;BMP280;4304;53.876;10.662;2022-09-30T08:53:04;116514.44;;;-139.81
8533;BMP280;4304;53.876;10.662;2022-09-30T08:55:41;116514.44;;;-139.81
8533;BMP280;4304;53.876;10.662;2022-09-30T08:58:19;116514.44;;;-139.81
8533;BMP280;4304;53.876;10.662;2022-09-30T09:00:49;116514.44;;;-139.81
8533;BMP280;4304;53.876;10.662;2022-09-30T09:03:16;116514.44;;;-139.81
8533;BMP280;4304;53.876;10.662;2022-09-30T09:05:52;116514.44;;;-139.81
8533;BMP280;4304;53.876;10.662;2022-09-30T09:11:11;116514.44;;;-139.81
8533;BMP280;4304;53.876;10.662;2022-09-30T09:13:50;116514.44;;;-139.81
8533;BMP280;4304;53.876;10.662;2022-09-30T09:18:52;116514.44;;;-139.81
8533;BMP280;4304;53.876;10.662;2022-09-30T09:21:30;116514.44;;;-139.81
8533;BMP280;4304;53.876;10.662;2022-09-30T09:24:01;116514.44;;;-139.81
8533;BMP280;4304;53.876;10.662;2022-09-30T09:26:35;116514.44;;;-139.81
8533;BMP280;4304;53.876;10.662;2022-09-30T09:29:21;116514.44;;;-139.81
8533;BMP280;4304;53.876;10.662;2022-09-30T09:31:46;116514.44;;;-139.81
8533;BMP280;4304;53.876;10.662;2022-09-30T09:34:11;116514.44;;;-139.81
8533;BMP280;4304;53.876;10.662;2022-09-30T09:36:49;116514.44;;;-139.81
8533;BMP280;4304;53.876;10.662;2022-09-30T09:39:33;116514.44;;;-139.81
8533;BMP280;4304;53.876;10.662;2022-09-30T09:42:12;116514.44;;;-139.81
8533;BMP280;4304;53.876;10.662;2022-09-30T09:44:56;116514.44;;;-139.81
8533;BMP280;4304;53.876;10.662;2022-09-30T09:47:22;116514.44;;;-139.81
8533;BMP280;4304;53.876;10.662;2022-09-30T09:49:56;116514.44;;;-139.81
8533;BMP280;4304;53.876;10.662;2022-09-30T09:55:20;116514.44;;;-139.81
8533;BMP280;4304;53.876;10.662;2022-09-30T09:57:46;116514.44;;;-139.81
8533;BMP280;4304;53.876;10.662;2022-09-30T10:00:22;116514.44;;;-139.81
8533;BMP280;4304;53.876;10.662;2022-09-30T10:03:03;116514.44;;;-139.81
8533;BMP280;4304;53.876;10.662;2022-09-30T10:05:31;116514.44;;;-139.81
8533;BMP280;4304;53.876;10.662;2022-09-30T10:08:16;116514.44;;;-139.81
8533;BMP280;4304;53.876;10.662;2022-09-30T10:10:50;116514.44;;;-139.81
8533;BMP280;4304;53.876;10.662;2022-09-30T10:13:21;116254.75;;;-139.81
8533;BMP280;4304;53.876;10.662;2022-09-30T10:15:49;116254.75;;;-139.81
8533;BMP280;4304;53.876;10.662;2022-09-30T10:18:51;116254.75;;;-139.81
8533;BMP280;4304;53.876;10.662;2022-09-30T10:21:22;116514.44;;;-139.81
8533;BMP280;4304;53.876;10.662;2022-09-30T10:23:47;116514.44;;;-139.81
8533;BMP280;4304;53.876;10.662;2022-09-30T10:28:56;116514.44;;;-139.81
8533;BMP280;4304;53.876;10.662;2022-09-30T10:37:16;116514.44;;;-139.81
8533;BMP280;4304;53.876;10.662;2022-09-30T10:39:52;116514.44;;;-139.81
8533;BMP280;4304;53.876;10.662;2022-09-30T10:42:21;116514.44;;;-139.81
8533;BMP280;4304;53.876;10.662;2022-09-30T10:44:51;116514.44;;;-139.81
8533;BMP280;4304;53.876;10.662;2022-09-30T10:47:21;116774.16;;;-139.81
8533;BMP280;4304;53.876;10.662;2022-09-30T10:49:54;116514.44;;;-139.81
8533;BMP280;4304;53.876;10.662;2022-09-30T10:52:25;116514.44;;;-139.81
8533;BMP280;4304;53.876;10.662;2022-09-30T10:54:56;116774.16;;;-139.81
8533;BMP280;4304;53.876;10.662;2022-09-30T10:57:28;116774.16;;;-139.81
8533;BMP280;4304;53.876;10.662;2022-09-30T11:00:13;116774.16;;;-139.81
8533;BMP280;4304;53.876;10.662;2022-09-30T11:02:45;116774.16;;;-139.81
8533;BMP280;4304;53.876;10.662;2022-09-30T11:05:16;116774.16;;;-139.81
8533;BMP280;4304;53.876;10.662;2022-09-30T11:13:16;116774.16;;;-139.81
8533;BMP280;4304;53.876;10.662;2022-09-30T11:18:54;116774.16;;;-139.81
8533;BMP280;4304;53.876;10.662;2022-09-30T11:24:01;116774.16;;;-139.81
8533;BMP280;4304;53.876;10.662;2022-09-30T11:35:20;116774.16;;;-139.81
8533;BMP280;4304;53.876;10.662;2022-09-30T11:57:17;116774.16;;;-139.81
8533;BMP280;4304;53.876;10.662;2022-09-30T12:02:47;116774.16;;;-139.81
8533;BMP280;4304;53.876;10.662;2022-09-30T12:07:53;116774.16;;;-139.81
8533;BMP280;4304;53.876;10.662;2022-09-30T12:13:19;116774.16;;;-139.81
8533;BMP280;4304;53.876;10.662;2022-09-30T12:15:47;116774.16;;;-139.81
8533;BMP280;4304;53.876;10.662;2022-09-30T12:18:16;116774.16;;;-139.81
8533;BMP280;4304;53.876;10.662;2022-09-30T12:20:50;116774.16;;;-139.81
8533;BMP280;4304;53.876;10.662;2022-09-30T12:23:31;116774.16;;;-139.81
8533;BMP280;4304;53.876;10.662;2022-09-30T12:26:02;116774.16;;;-139.81
8533;BMP280;4304;53.876;10.662;2022-09-30T12:29:11;116774.16;;;-139.81
8533;BMP280;4304;53.876;10.662;2022-09-30T12:37:07;116774.16;;;-139.81
8533;BMP280;4304;53.876;10.662;2022-09-30T12:47:35;116774.16;;;-139.81
8533;BMP280;4304;53.876;10.662;2022-09-30T12:50:05;116774.16;;;-139.81
8533;BMP280;4304;53.876;10.662;2022-09-30T12:52:32;116774.16;;;-139.81
8533;BMP280;4304;53.876;10.662;2022-09-30T12:55:04;116774.16;;;-139.81
8533;BMP280;4304;53.876;10.662;2022-09-30T12:57:33;116774.16;;;-139.81
8533;BMP280;4304;53.876;10.662;2022-09-30T13:00:21;116774.16;;;-139.81
8533;BMP280;4304;53.876;10.662;2022-09-30T13:03:13;116774.16;;;-139.81
8533;BMP280;4304;53.876;10.662;2022-09-30T13:13:30;116774.16;;;-139.81
8533;BMP280;4304;53.876;10.662;2022-09-30T13:15:56;116774.16;;;-139.81
8533;BMP280;4304;53.876;10.662;2022-09-30T13:23:43;116774.16;;;-139.81
8533;BMP280;4304;53.876;10.662;2022-09-30T13:28:46;116774.16;;;-139.81
8533;BMP280;4304;53.876;10.662;2022-09-30T13:31:14;116774.16;;;-139.81
8533;BMP280;4304;53.876;10.662;2022-09-30T13:33:43;116774.16;;;-139.81
8533;BMP280;4304;53.876;10.662;2022-09-30T13:36:24;116774.16;;;-139.81
8533;BMP280;4304;53.876;10.662;2022-09-30T13:39:06;116774.16;;;-139.81
8533;BMP280;4304;53.876;10.662;2022-09-30T13:41:42;116774.16;;;-139.81
8533;BMP280;4304;53.876;10.662;2022-09-30T13:44:14;116774.16;;;-139.81
8533;BMP280;4304;53.876;10.662;2022-09-30T13:46:59;116774.16;;;-139.81
8533;BMP280;4304;53.876;10.662;2022-09-30T13:49:41;116774.16;;;-139.81
8533;BMP280;4304;53.876;10.662;2022-09-30T13:52:28;116774.16;;;-139.81
8533;BMP280;4304;53.876;10.662;2022-09-30T13:54:55;116774.16;;;-139.81
8533;BMP280;4304;53.876;10.662;2022-09-30T13:57:34;116774.16;;;-139.81
8533;BMP280;4304;53.876;10.662;2022-09-30T14:00:09;116774.16;;;-139.81
8533;BMP280;4304;53.876;10.662;2022-09-30T14:05:28;116774.16;;;-139.81
8533;BMP280;4304;53.876;10.662;2022-09-30T14:08:08;116774.16;;;-139.81
8533;BMP280;4304;53.876;10.662;2022-09-30T14:13:51;116774.16;;;-139.81
8533;BMP280;4304;53.876;10.662;2022-09-30T14:16:27;116774.16;;;-139.81
8533;BMP280;4304;53.876;10.662;2022-09-30T14:19:26;116774.16;;;-139.81
8533;BMP280;4304;53.876;10.662;2022-09-30T14:21:56;116514.44;;;-139.81
8533;BMP280;4304;53.876;10.662;2022-09-30T14:24:24;116774.16;;;-139.81
8533;BMP280;4304;53.876;10.662;2022-09-30T14:29:57;116774.16;;;-139.81
8533;BMP280;4304;53.876;10.662;2022-09-30T14:32:29;116774.16;;;-139.81
8533;BMP280;4304;53.876;10.662;2022-09-30T14:34:56;116514.44;;;-139.81
8533;BMP280;4304;53.876;10.662;2022-09-30T14:37:27;116514.44;;;-139.81
8533;BMP280;4304;53.876;10.662;2022-09-30T14:39:54;116514.44;;;-139.81
8533;BMP280;4304;53.876;10.662;2022-09-30T14:44:53;116514.44;;;-139.81
8533;BMP280;4304;53.876;10.662;2022-09-30T14:47:19;116514.44;;;-139.81
8533;BMP280;4304;53.876;10.662;2022-09-30T14:49:44;116514.44;;;-139.81
8533;BMP280;4304;53.876;10.662;2022-09-30T14:52:34;116514.44;;;-139.81
8533;BMP280;4304;53.876;10.662;2022-09-30T14:54:59;116514.44;;;-139.81
8533;BMP280;4304;53.876;10.662;2022-09-30T14:57:24;116514.44;;;-139.81
8533;BMP280;4304;53.876;10.662;2022-09-30T14:59:50;116254.75;;;-139.81
8533;BMP280;4304;53.876;10.662;2022-09-30T15:02:17;116514.44;;;-139.81
8533;BMP280;4304;53.876;10.662;2022-09-30T15:04:47;116514.44;;;-139.81
8533;BMP280;4304;53.876;10.662;2022-09-30T15:07:14;116514.44;;;-139.81
8533;BMP280;4304;53.876;10.662;2022-09-30T15:09:44;116514.44;;;-139.81
8533;BMP280;4304;53.876;10.662;2022-09-30T15:12:11;116514.44;;;-139.81
8533;BMP280;4304;53.876;10.662;2022-09-30T15:14:55;116514.44;;;-139.81
8533;BMP280;4304;53.876;10.662;2022-09-30T15:17:22;116254.75;;;-139.81
8533;BMP280;4304;53.876;10.662;2022-09-30T15:19:48;116254.75;;;-139.81
8533;BMP280;4304;53.876;10.662;2022-09-30T15:22:13;116254.75;;;-139.81
8533;BMP280;4304;53.876;10.662;2022-09-30T15:24:39;116254.75;;;-139.81
8533;BMP280;4304;53.876;10.662;2022-09-30T15:27:05;116254.75;;;-139.81
8533;BMP280;4304;53.876;10.662;2022-09-30T15:29:31;116254.75;;;-139.81
8533;BMP280;4304;53.876;10.662;2022-09-30T15:32:11;116254.75;;;-139.81
8533;BMP280;4304;53.876;10.662;2022-09-30T15:34:38;116254.75;;;-139.81
8533;BMP280;4304;53.876;10.662;2022-09-30T15:37:03;116254.75;;;-139.81
8533;BMP280;4304;53.876;10.662;2022-09-30T15:39:29;116254.75;;;-139.81
8533;BMP280;4304;53.876;10.662;2022-09-30T15:41:55;116254.75;;;-139.81
8533;BMP280;4304;53.876;10.662;2022-09-30T15:44:37;116254.75;;;-139.81
8533;BMP280;4304;53.876;10.662;2022-09-30T15:47:07;116254.75;;;-139.81
8533;BMP280;4304;53.876;10.662;2022-09-30T15:49:46;116254.75;;;-139.81
8533;BMP280;4304;53.876;10.662;2022-09-30T15:52:22;116254.75;;;-139.81
8533;BMP280;4304;53.876;10.662;2022-09-30T15:54:49;116254.75;;;-139.81
8533;BMP280;4304;53.876;10.662;2022-09-30T15:57:47;116254.75;;;-139.81
8533;BMP280;4304;53.876;10.662;2022-09-30T16:03:27;116254.75;;;-139.81
8533;BMP280;4304;53.876;10.662;2022-09-30T16:05:52;115995.09;;;-139.81
8533;BMP280;4304;53.876;10.662;2022-09-30T16:08:26;115995.09;;;-139.81
8533;BMP280;4304;53.876;10.662;2022-09-30T16:10:55;115995.09;;;-139.81
8533;BMP280;4304;53.876;10.662;2022-09-30T16:13:23;115995.09;;;-139.81
8533;BMP280;4304;53.876;10.662;2022-09-30T16:15:52;115995.09;;;-139.81
8533;BMP280;4304;53.876;10.662;2022-09-30T16:18:23;115995.09;;;-139.81
8533;BMP280;4304;53.876;10.662;2022-09-30T16:21:03;115995.09;;;-139.81
8533;BMP280;4304;53.876;10.662;2022-09-30T16:23:34;115995.09;;;-139.81
8533;BMP280;4304;53.876;10.662;2022-09-30T16:28:41;115995.09;;;-139.81
8533;BMP280;4304;53.876;10.662;2022-09-30T16:31:06;115995.09;;;-139.81
8533;BMP280;4304;53.876;10.662;2022-09-30T16:33:33;115995.09;;;-139.81
8533;BMP280;4304;53.876;10.662;2022-09-30T16:35:59;115995.09;;;-139.81
8533;BMP280;4304;53.876;10.662;2022-09-30T16:38:24;115735.44;;;-139.81
8533;BMP280;4304;53.876;10.662;2022-09-30T16:40:49;115735.44;;;-139.81
8533;BMP280;4304;53.876;10.662;2022-09-30T16:43:15;115735.44;;;-139.81
8533;BMP280;4304;53.876;10.662;2022-09-30T16:45:40;115735.44;;;-139.81
8533;BMP280;4304;53.876;10.662;2022-09-30T16:48:14;115735.44;;;-139.81
8533;BMP280;4304;53.876;10.662;2022-09-30T16:50:44;115735.44;;;-139.81
8533;BMP280;4304;53.876;10.662;2022-09-30T16:53:11;115735.44;;;-139.81